sensor_id;sensor_type;location;lat;lon;timestamp;pressure;altitude;pressure_sealevel;temperature;humidity
72560;BME280;62987;52.382;9.752;2022-11-04T00:01:37;99360.53;;;12.73;78.55
72560;BME280;62987;52.382;9.752;2022-11-04T00:04:08;99362.38;;;12.60;79.38
72560;BME280;62987;52.382;9.752;2022-11-04T00:06:37;99364.28;;;12.71;78.66
72560;BME280;62987;52.382;9.752;2022-11-04T00:09:06;99363.75;;;12.66;78.39
72560;BME280;62987;52.382;9.752;2022-11-04T00:11:34;99343.34;;;12.77;78.48
72560;BME280;62987;52.382;9.752;2022-11-04T00:14:20;99335.22;;;12.79;78.72
72560;BME280;62987;52.382;9.752;2022-11-04T00:16:48;99332.91;;;12.74;78.54
72560;BME280;62987;52.382;9.752;2022-11-04T00:19:35;99348.66;;;12.77;78.71
72560;BME280;62987;52.382;9.752;2022-11-04T00:22:17;99357.13;;;12.71;78.60
72560;BME280;62987;52.382;9.752;2022-11-04T00:25:17;99359.34;;;12.77;78.43
72560;BME280;62987;52.382;9.752;2022-11-04T00:28:09;99356.56;;;12.79;78.46
72560;BME280;62987;52.382;9.752;2022-11-04T00:30:57;99356.13;;;12.85;79.03
72560;BME280;62987;52.382;9.752;2022-11-04T00:33:45;99365.28;;;12.94;78.94
72560;BME280;62987;52.382;9.752;2022-11-04T00:36:13;99360.81;;;12.94;78.79
72560;BME280;62987;52.382;9.752;2022-11-04T00:38:42;99368.34;;;13.00;78.93
72560;BME280;62987;52.382;9.752;2022-11-04T00:41:10;99359.50;;;13.00;78.43
72560;BME280;62987;52.382;9.752;2022-11-04T00:44:04;99365.91;;;12.97;78.70
72560;BME280;62987;52.382;9.752;2022-11-04T00:46:32;99368.06;;;12.92;78.34
72560;BME280;62987;52.382;9.752;2022-11-04T00:49:00;99363.38;;;12.96;77.77
72560;BME280;62987;52.382;9.752;2022-11-04T00:51:28;99375.09;;;12.93;78.50
72560;BME280;62987;52.382;9.752;2022-11-04T00:53:56;99374.25;;;12.93;78.47
72560;BME280;62987;52.382;9.752;2022-11-04T00:56:24;99385.78;;;12.93;78.70
72560;BME280;62987;52.382;9.752;2022-11-04T00:58:52;99381.47;;;13.03;79.20
72560;BME280;62987;52.382;9.752;2022-11-04T01:01:22;99382.31;;;13.04;78.65
72560;BME280;62987;52.382;9.752;2022-11-04T01:03:51;99382.66;;;12.99;79.23
72560;BME280;62987;52.382;9.752;2022-11-04T01:06:21;99398.38;;;12.91;80.08
72560;BME280;62987;52.382;9.752;2022-11-04T01:08:54;99403.53;;;12.81;81.31
72560;BME280;62987;52.382;9.752;2022-11-04T01:11:22;99372.19;;;12.60;82.72
72560;BME280;62987;52.382;9.752;2022-11-04T01:13:50;99402.38;;;12.73;82.65
72560;BME280;62987;52.382;9.752;2022-11-04T01:16:19;99402.94;;;12.53;85.30
72560;BME280;62987;52.382;9.752;2022-11-04T01:18:49;99389.28;;;12.57;83.80
72560;BME280;62987;52.382;9.752;2022-11-04T01:21:17;99379.72;;;12.42;83.51
72560;BME280;62987;52.382;9.752;2022-11-04T01:23:45;99391.00;;;12.46;84.85
72560;BME280;62987;52.382;9.752;2022-11-04T01:26:16;99385.91;;;12.43;85.12
72560;BME280;62987;52.382;9.752;2022-11-04T01:28:44;99384.19;;;12.41;85.21
72560;BME280;62987;52.382;9.752;2022-11-04T01:31:14;99405.84;;;12.50;84.97
72560;BME280;62987;52.382;9.752;2022-11-04T01:33:42;99404.47;;;12.31;84.79
72560;BME280;62987;52.382;9.752;2022-11-04T01:36:12;99402.09;;;12.39;84.89
72560;BME280;62987;52.382;9.752;2022-11-04T01:38:40;99391.94;;;12.45;84.49
72560;BME280;62987;52.382;9.752;2022-11-04T01:41:13;99390.38;;;12.42;84.41
72560;BME280;62987;52.382;9.752;2022-11-04T01:43:47;99387.88;;;12.52;84.48
72560;BME280;62987;52.382;9.752;2022-11-04T01:46:22;99398.03;;;12.47;84.41
72560;BME280;62987;52.382;9.752;2022-11-04T01:48:52;99391.84;;;12.59;84.30
72560;BME280;62987;52.382;9.752;2022-11-04T01:51:24;99404.44;;;12.57;84.18
72560;BME280;62987;52.382;9.752;2022-11-04T01:53:54;99407.00;;;12.46;84.65
72560;BME280;62987;52.382;9.752;2022-11-04T01:56:25;99419.59;;;12.44;84.69
72560;BME280;62987;52.382;9.752;2022-11-04T01:58:56;99416.38;;;12.51;84.89
72560;BME280;62987;52.382;9.752;2022-11-04T02:01:26;99424.94;;;12.44;85.20
72560;BME280;62987;52.382;9.752;2022-11-04T02:03:57;99409.13;;;12.40;85.14
72560;BME280;62987;52.382;9.752;2022-11-04T02:06:48;99398.69;;;12.50;84.90
72560;BME280;62987;52.382;9.752;2022-11-04T02:09:18;99405.53;;;12.41;84.83
72560;BME280;62987;52.382;9.752;2022-11-04T02:11:46;99398.91;;;12.47;84.84
72560;BME280;62987;52.382;9.752;2022-11-04T02:14:33;99398.03;;;12.47;85.21
72560;BME280;62987;52.382;9.752;2022-11-04T02:17:12;99389.09;;;12.48;85.07
72560;BME280;62987;52.382;9.752;2022-11-04T02:20:06;99408.09;;;12.43;85.20
72560;BME280;62987;52.382;9.752;2022-11-04T02:23:17;99405.28;;;12.45;85.01
72560;BME280;62987;52.382;9.752;2022-11-04T02:26:11;99395.16;;;12.50;84.52
72560;BME280;62987;52.382;9.752;2022-11-04T02:31:46;99398.47;;;12.53;84.69
72560;BME280;62987;52.382;9.752;2022-11-04T02:34:21;99390.56;;;12.52;84.58
72560;BME280;62987;52.382;9.752;2022-11-04T02:36:59;99391.75;;;12.48;84.40
72560;BME280;62987;52.382;9.752;2022-11-04T02:39:37;99398.03;;;12.47;83.95
72560;BME280;62987;52.382;9.752;2022-11-04T02:42:11;99410.19;;;12.63;83.85
72560;BME280;62987;52.382;9.752;2022-11-04T02:44:44;99412.00;;;12.63;84.03
72560;BME280;62987;52.382;9.752;2022-11-04T02:47:21;99412.88;;;12.63;83.84
72560;BME280;62987;52.382;9.752;2022-11-04T02:49:52;99403.66;;;12.67;83.52
72560;BME280;62987;52.382;9.752;2022-11-04T02:52:26;99413.81;;;12.62;83.57
72560;BME280;62987;52.382;9.752;2022-11-04T02:55:00;99407.22;;;12.55;83.33
72560;BME280;62987;52.382;9.752;2022-11-04T02:57:32;99408.47;;;12.75;82.48
72560;BME280;62987;52.382;9.752;2022-11-04T03:00:05;99398.22;;;12.69;82.50
72560;BME280;62987;52.382;9.752;2022-11-04T03:02:39;99405.28;;;12.70;82.51
72560;BME280;62987;52.382;9.752;2022-11-04T03:05:12;99410.91;;;12.65;83.00
72560;BME280;62987;52.382;9.752;2022-11-04T03:07:42;99411.88;;;12.64;82.82
72560;BME280;62987;52.382;9.752;2022-11-04T03:10:14;99403.06;;;12.64;82.76
72560;BME280;62987;52.382;9.752;2022-11-04T03:12:46;99420.63;;;12.66;82.82
72560;BME280;62987;52.382;9.752;2022-11-04T03:15:19;99415.41;;;12.65;82.68
72560;BME280;62987;52.382;9.752;2022-11-04T03:17:59;99411.47;;;12.58;81.99
72560;BME280;62987;52.382;9.752;2022-11-04T03:20:30;99430.97;;;12.58;81.42
72560;BME280;62987;52.382;9.752;2022-11-04T03:22:58;99441.88;;;12.55;80.57
72560;BME280;62987;52.382;9.752;2022-11-04T03:25:31;99449.66;;;12.46;79.21
72560;BME280;62987;52.382;9.752;2022-11-04T03:28:04;99460.75;;;12.52;79.55
72560;BME280;62987;52.382;9.752;2022-11-04T03:30:38;99461.19;;;12.33;77.24
72560;BME280;62987;52.382;9.752;2022-11-04T03:33:17;99477.00;;;12.36;76.82
72560;BME280;62987;52.382;9.752;2022-11-04T03:35:46;99487.13;;;12.31;76.26
72560;BME280;62987;52.382;9.752;2022-11-04T03:38:15;99497.91;;;12.43;77.00
72560;BME280;62987;52.382;9.752;2022-11-04T03:40:43;99495.75;;;12.35;75.94
72560;BME280;62987;52.382;9.752;2022-11-04T03:43:14;99501.94;;;12.35;77.80
72560;BME280;62987;52.382;9.752;2022-11-04T03:45:44;99507.69;;;12.17;77.95
72560;BME280;62987;52.382;9.752;2022-11-04T03:48:13;99516.78;;;12.00;75.92
72560;BME280;62987;52.382;9.752;2022-11-04T03:50:43;99523.00;;;12.13;75.14
72560;BME280;62987;52.382;9.752;2022-11-04T03:53:17;99529.59;;;12.08;75.32
72560;BME280;62987;52.382;9.752;2022-11-04T03:56:01;99544.16;;;12.16;77.15
72560;BME280;62987;52.382;9.752;2022-11-04T03:58:39;99548.59;;;12.03;75.70
72560;BME280;62987;52.382;9.752;2022-11-04T04:01:20;99540.59;;;12.03;76.78
72560;BME280;62987;52.382;9.752;2022-11-04T04:03:58;99549.19;;;11.94;76.71
72560;BME280;62987;52.382;9.752;2022-11-04T04:06:31;99562.31;;;11.97;76.73
72560;BME280;62987;52.382;9.752;2022-11-04T04:09:06;99540.47;;;11.92;75.51
72560;BME280;62987;52.382;9.752;2022-11-04T04:11:40;99534.31;;;11.77;75.37
72560;BME280;62987;52.382;9.752;2022-11-04T04:14:16;99551.97;;;11.92;74.96
72560;BME280;62987;52.382;9.752;2022-11-04T04:17:07;99558.75;;;11.84;75.27
72560;BME280;62987;52.382;9.752;2022-11-04T04:19:45;99552.00;;;12.05;74.94
72560;BME280;62987;52.382;9.752;2022-11-04T04:22:17;99551.66;;;11.97;75.18
72560;BME280;62987;52.382;9.752;2022-11-04T04:24:48;99561.38;;;11.98;75.69
72560;BME280;62987;52.382;9.752;2022-11-04T04:27:36;99564.31;;;11.93;74.76
72560;BME280;62987;52.382;9.752;2022-11-04T04:30:07;99556.44;;;11.92;75.56
72560;BME280;62987;52.382;9.752;2022-11-04T04:32:38;99571.16;;;11.97;74.85
72560;BME280;62987;52.382;9.752;2022-11-04T04:35:09;99584.03;;;11.91;75.32
72560;BME280;62987;52.382;9.752;2022-11-04T04:37:57;99588.09;;;11.96;74.75
72560;BME280;62987;52.382;9.752;2022-11-04T04:40:50;99583.19;;;11.90;74.87
72560;BME280;62987;52.382;9.752;2022-11-04T04:43:40;99587.59;;;12.04;74.63
72560;BME280;62987;52.382;9.752;2022-11-04T04:46:28;99594.25;;;12.11;74.36
72560;BME280;62987;52.382;9.752;2022-11-04T04:49:03;99589.31;;;12.05;74.65
72560;BME280;62987;52.382;9.752;2022-11-04T04:51:32;99594.66;;;12.05;75.50
72560;BME280;62987;52.382;9.752;2022-11-04T04:54:01;99585.53;;;11.95;75.26
72560;BME280;62987;52.382;9.752;2022-11-04T04:56:29;99588.59;;;11.89;74.97
72560;BME280;62987;52.382;9.752;2022-11-04T04:58:57;99578.16;;;11.72;74.60
72560;BME280;62987;52.382;9.752;2022-11-04T05:01:25;99590.91;;;11.81;74.40
72560;BME280;62987;52.382;9.752;2022-11-04T05:03:53;99598.16;;;11.79;75.19
72560;BME280;62987;52.382;9.752;2022-11-04T05:06:21;99600.81;;;11.65;75.44
72560;BME280;62987;52.382;9.752;2022-11-04T05:08:51;99597.22;;;11.66;74.84
72560;BME280;62987;52.382;9.752;2022-11-04T05:11:19;99604.34;;;11.65;75.11
72560;BME280;62987;52.382;9.752;2022-11-04T05:13:52;99598.09;;;11.52;75.46
72560;BME280;62987;52.382;9.752;2022-11-04T05:16:21;99608.84;;;11.50;75.04
72560;BME280;62987;52.382;9.752;2022-11-04T05:18:50;99613.22;;;11.51;74.71
72560;BME280;62987;52.382;9.752;2022-11-04T05:21:18;99613.97;;;11.53;75.06
72560;BME280;62987;52.382;9.752;2022-11-04T05:23:46;99622.06;;;11.52;74.63
72560;BME280;62987;52.382;9.752;2022-11-04T05:26:15;99632.97;;;11.47;74.79
72560;BME280;62987;52.382;9.752;2022-11-04T05:28:43;99633.56;;;11.38;74.67
72560;BME280;62987;52.382;9.752;2022-11-04T05:31:11;99637.56;;;11.45;74.29
72560;BME280;62987;52.382;9.752;2022-11-04T05:33:39;99646.03;;;11.38;74.48
72560;BME280;62987;52.382;9.752;2022-11-04T05:36:08;99651.25;;;11.39;74.63
72560;BME280;62987;52.382;9.752;2022-11-04T05:38:37;99644.03;;;11.27;75.35
72560;BME280;62987;52.382;9.752;2022-11-04T05:41:07;99625.41;;;11.13;75.45
72560;BME280;62987;52.382;9.752;2022-11-04T05:43:37;99643.16;;;11.12;76.05
72560;BME280;62987;52.382;9.752;2022-11-04T05:46:05;99623.84;;;11.09;76.28
72560;BME280;62987;52.382;9.752;2022-11-04T05:48:33;99640.50;;;10.98;75.37
72560;BME280;62987;52.382;9.752;2022-11-04T05:51:06;99646.88;;;11.10;75.08
72560;BME280;62987;52.382;9.752;2022-11-04T05:53:34;99651.91;;;11.00;75.19
72560;BME280;62987;52.382;9.752;2022-11-04T05:56:02;99661.31;;;11.06;75.09
72560;BME280;62987;52.382;9.752;2022-11-04T05:58:30;99651.81;;;11.16;74.11
72560;BME280;62987;52.382;9.752;2022-11-04T06:01:11;99657.88;;;11.04;74.22
72560;BME280;62987;52.382;9.752;2022-11-04T06:03:40;99654.59;;;11.14;74.83
72560;BME280;62987;52.382;9.752;2022-11-04T06:06:08;99660.47;;;11.05;75.32
72560;BME280;62987;52.382;9.752;2022-11-04T06:08:36;99675.41;;;11.08;75.11
72560;BME280;62987;52.382;9.752;2022-11-04T06:11:11;99677.28;;;11.06;75.19
72560;BME280;62987;52.382;9.752;2022-11-04T06:13:39;99678.72;;;11.11;74.82
72560;BME280;62987;52.382;9.752;2022-11-04T06:16:07;99691.38;;;11.08;74.89
72560;BME280;62987;52.382;9.752;2022-11-04T06:18:36;99676.22;;;11.08;75.44
72560;BME280;62987;52.382;9.752;2022-11-04T06:21:16;99688.69;;;11.08;74.82
72560;BME280;62987;52.382;9.752;2022-11-04T06:23:47;99694.69;;;11.11;74.87
72560;BME280;62987;52.382;9.752;2022-11-04T06:26:15;99703.69;;;11.09;74.74
72560;BME280;62987;52.382;9.752;2022-11-04T06:28:44;99718.13;;;11.05;75.25
72560;BME280;62987;52.382;9.752;2022-11-04T06:31:13;99724.97;;;11.09;74.72
72560;BME280;62987;52.382;9.752;2022-11-04T06:33:43;99731.84;;;11.13;74.33
72560;BME280;62987;52.382;9.752;2022-11-04T06:36:14;99745.66;;;11.19;74.91
72560;BME280;62987;52.382;9.752;2022-11-04T06:38:42;99743.09;;;11.32;74.40
72560;BME280;62987;52.382;9.752;2022-11-04T06:41:13;99750.88;;;11.35;74.17
72560;BME280;62987;52.382;9.752;2022-11-04T06:43:41;99754.44;;;11.50;73.66
72560;BME280;62987;52.382;9.752;2022-11-04T06:46:24;99766.59;;;11.40;73.34
72560;BME280;62987;52.382;9.752;2022-11-04T06:48:54;99762.13;;;11.40;73.55
72560;BME280;62987;52.382;9.752;2022-11-04T06:51:23;99782.78;;;11.51;73.11
72560;BME280;62987;52.382;9.752;2022-11-04T06:53:52;99775.66;;;11.51;73.34
72560;BME280;62987;52.382;9.752;2022-11-04T06:56:20;99758.25;;;11.60;73.07
72560;BME280;62987;52.382;9.752;2022-11-04T06:58:48;99766.63;;;11.68;72.97
72560;BME280;62987;52.382;9.752;2022-11-04T07:01:18;99751.31;;;11.72;72.56
72560;BME280;62987;52.382;9.752;2022-11-04T07:03:48;99753.41;;;11.67;72.07
72560;BME280;62987;52.382;9.752;2022-11-04T07:06:18;99749.81;;;11.82;71.86
72560;BME280;62987;52.382;9.752;2022-11-04T07:08:47;99753.72;;;11.76;72.35
72560;BME280;62987;52.382;9.752;2022-11-04T07:11:18;99758.56;;;11.84;71.91
72560;BME280;62987;52.382;9.752;2022-11-04T07:13:46;99764.28;;;11.78;71.82
72560;BME280;62987;52.382;9.752;2022-11-04T07:16:16;99776.16;;;11.86;71.42
72560;BME280;62987;52.382;9.752;2022-11-04T07:18:44;99765.97;;;11.93;71.35
72560;BME280;62987;52.382;9.752;2022-11-04T07:21:14;99768.28;;;11.85;71.63
72560;BME280;62987;52.382;9.752;2022-11-04T07:23:43;99766.19;;;11.90;71.24
72560;BME280;62987;52.382;9.752;2022-11-04T07:26:11;99754.66;;;11.89;70.86
72560;BME280;62987;52.382;9.752;2022-11-04T07:28:39;99782.56;;;11.84;70.36
72560;BME280;62987;52.382;9.752;2022-11-04T07:31:09;99778.56;;;12.05;70.37
72560;BME280;62987;52.382;9.752;2022-11-04T07:33:38;99772.16;;;11.93;70.45
72560;BME280;62987;52.382;9.752;2022-11-04T07:36:09;99777.56;;;12.06;68.98
72560;BME280;62987;52.382;9.752;2022-11-04T07:38:37;99783.19;;;12.01;68.89
72560;BME280;62987;52.382;9.752;2022-11-04T07:41:07;99783.84;;;12.19;68.17
72560;BME280;62987;52.382;9.752;2022-11-04T07:43:35;99785.78;;;12.17;68.38
72560;BME280;62987;52.382;9.752;2022-11-04T07:46:04;99783.56;;;12.24;68.17
72560;BME280;62987;52.382;9.752;2022-11-04T07:48:34;99795.03;;;12.12;68.01
72560;BME280;62987;52.382;9.752;2022-11-04T07:51:04;99798.34;;;12.15;67.75
72560;BME280;62987;52.382;9.752;2022-11-04T07:53:33;99798.41;;;12.28;68.05
72560;BME280;62987;52.382;9.752;2022-11-04T07:56:02;99803.84;;;12.12;67.48
72560;BME280;62987;52.382;9.752;2022-11-04T07:58:32;99804.53;;;12.16;67.51
72560;BME280;62987;52.382;9.752;2022-11-04T08:01:02;99806.31;;;12.29;68.18
72560;BME280;62987;52.382;9.752;2022-11-04T08:03:31;99812.59;;;12.28;67.30
72560;BME280;62987;52.382;9.752;2022-11-04T08:06:01;99808.34;;;12.53;68.34
72560;BME280;62987;52.382;9.752;2022-11-04T08:08:30;99803.25;;;12.50;66.55
72560;BME280;62987;52.382;9.752;2022-11-04T08:11:00;99812.97;;;12.36;66.22
72560;BME280;62987;52.382;9.752;2022-11-04T08:13:29;99824.38;;;12.38;66.46
72560;BME280;62987;52.382;9.752;2022-11-04T08:16:02;99804.03;;;12.23;66.53
72560;BME280;62987;52.382;9.752;2022-11-04T08:18:31;99832.97;;;12.44;66.57
72560;BME280;62987;52.382;9.752;2022-11-04T08:21:00;99837.31;;;12.45;66.30
72560;BME280;62987;52.382;9.752;2022-11-04T08:23:28;99839.25;;;12.43;66.72
72560;BME280;62987;52.382;9.752;2022-11-04T08:25:57;99848.69;;;12.34;66.91
72560;BME280;62987;52.382;9.752;2022-11-04T08:28:25;99842.88;;;12.27;67.22
72560;BME280;62987;52.382;9.752;2022-11-04T08:30:57;99847.44;;;12.39;67.08
72560;BME280;62987;52.382;9.752;2022-11-04T08:33:27;99841.69;;;12.60;66.73
72560;BME280;62987;52.382;9.752;2022-11-04T08:35:59;99844.78;;;12.39;66.80
72560;BME280;62987;52.382;9.752;2022-11-04T08:38:27;99847.63;;;12.51;66.71
72560;BME280;62987;52.382;9.752;2022-11-04T08:40:56;99853.13;;;12.62;66.38
72560;BME280;62987;52.382;9.752;2022-11-04T08:43:26;99854.47;;;12.55;66.57
72560;BME280;62987;52.382;9.752;2022-11-04T08:45:54;99851.91;;;12.53;67.25
72560;BME280;62987;52.382;9.752;2022-11-04T08:48:22;99852.38;;;12.46;67.09
72560;BME280;62987;52.382;9.752;2022-11-04T08:50:55;99844.66;;;12.55;66.84
72560;BME280;62987;52.382;9.752;2022-11-04T08:53:25;99851.78;;;12.69;66.19
72560;BME280;62987;52.382;9.752;2022-11-04T08:55:53;99840.03;;;12.71;65.98
72560;BME280;62987;52.382;9.752;2022-11-04T08:58:21;99833.06;;;12.83;65.99
72560;BME280;62987;52.382;9.752;2022-11-04T09:00:50;99843.75;;;12.83;65.42
72560;BME280;62987;52.382;9.752;2022-11-04T09:03:18;99854.22;;;12.86;65.28
72560;BME280;62987;52.382;9.752;2022-11-04T09:05:46;99856.63;;;13.03;65.38
72560;BME280;62987;52.382;9.752;2022-11-04T09:08:16;99855.03;;;13.01;64.58
72560;BME280;62987;52.382;9.752;2022-11-04T09:10:46;99846.31;;;13.38;64.11
72560;BME280;62987;52.382;9.752;2022-11-04T09:13:14;99858.38;;;13.44;63.48
72560;BME280;62987;52.382;9.752;2022-11-04T09:15:43;99868.84;;;13.99;61.58
72560;BME280;62987;52.382;9.752;2022-11-04T09:18:11;99865.41;;;14.10;61.37
72560;BME280;62987;52.382;9.752;2022-11-04T09:20:39;99859.19;;;14.22;62.47
72560;BME280;62987;52.382;9.752;2022-11-04T09:23:08;99870.13;;;13.93;62.34
72560;BME280;62987;52.382;9.752;2022-11-04T09:25:38;99861.97;;;13.82;61.26
72560;BME280;62987;52.382;9.752;2022-11-04T09:28:06;99868.38;;;13.54;62.12
72560;BME280;62987;52.382;9.752;2022-11-04T09:30:35;99856.50;;;13.19;63.21
72560;BME280;62987;52.382;9.752;2022-11-04T09:33:06;99872.84;;;13.14;63.45
72560;BME280;62987;52.382;9.752;2022-11-04T09:35:35;99865.56;;;13.16;64.02
72560;BME280;62987;52.382;9.752;2022-11-04T09:38:03;99875.22;;;13.05;64.63
72560;BME280;62987;52.382;9.752;2022-11-04T09:40:34;99851.63;;;12.85;64.22
72560;BME280;62987;52.382;9.752;2022-11-04T09:43:13;99877.25;;;13.01;64.49
72560;BME280;62987;52.382;9.752;2022-11-04T09:45:44;99881.03;;;12.97;64.60
72560;BME280;62987;52.382;9.752;2022-11-04T09:48:21;99872.84;;;13.00;64.42
72560;BME280;62987;52.382;9.752;2022-11-04T09:50:54;99869.97;;;13.03;63.99
72560;BME280;62987;52.382;9.752;2022-11-04T09:53:27;99874.34;;;13.18;63.75
72560;BME280;62987;52.382;9.752;2022-11-04T09:56:00;99877.28;;;13.28;63.52
72560;BME280;62987;52.382;9.752;2022-11-04T09:58:36;99858.22;;;13.20;64.21
72560;BME280;62987;52.382;9.752;2022-11-04T10:01:14;99858.34;;;13.04;63.95
72560;BME280;62987;52.382;9.752;2022-11-04T10:04:06;99857.03;;;12.97;64.99
72560;BME280;62987;52.382;9.752;2022-11-04T10:06:43;99849.25;;;13.21;64.16
72560;BME280;62987;52.382;9.752;2022-11-04T10:09:28;99858.38;;;13.44;63.36
72560;BME280;62987;52.382;9.752;2022-11-04T10:12:08;99855.53;;;13.59;63.06
72560;BME280;62987;52.382;9.752;2022-11-04T10:14:55;99858.53;;;13.68;62.43
72560;BME280;62987;52.382;9.752;2022-11-04T10:17:40;99857.69;;;13.54;62.20
72560;BME280;62987;52.382;9.752;2022-11-04T10:20:25;99859.38;;;13.68;61.67
72560;BME280;62987;52.382;9.752;2022-11-04T10:22:57;99859.41;;;14.31;60.33
72560;BME280;62987;52.382;9.752;2022-11-04T10:25:29;99844.41;;;14.54;60.17
72560;BME280;62987;52.382;9.752;2022-11-04T10:28:01;99859.56;;;14.66;58.78
72560;BME280;62987;52.382;9.752;2022-11-04T10:30:35;99873.63;;;14.07;60.45
72560;BME280;62987;52.382;9.752;2022-11-04T10:33:03;99889.81;;;13.92;61.16
72560;BME280;62987;52.382;9.752;2022-11-04T10:35:38;99891.19;;;14.61;58.05
72560;BME280;62987;52.382;9.752;2022-11-04T10:38:16;99902.97;;;16.70;52.19
72560;BME280;62987;52.382;9.752;2022-11-04T10:40:48;99896.09;;;17.42;49.37
72560;BME280;62987;52.382;9.752;2022-11-04T10:43:23;99905.41;;;16.62;51.43
72560;BME280;62987;52.382;9.752;2022-11-04T10:46:05;99903.53;;;15.83;53.02
72560;BME280;62987;52.382;9.752;2022-11-04T10:48:44;99887.44;;;15.24;55.25
72560;BME280;62987;52.382;9.752;2022-11-04T10:51:16;99901.69;;;14.64;57.04
72560;BME280;62987;52.382;9.752;2022-11-04T10:53:49;99904.47;;;14.63;57.81
72560;BME280;62987;52.382;9.752;2022-11-04T10:56:27;99908.56;;;14.92;56.90
72560;BME280;62987;52.382;9.752;2022-11-04T10:58:59;99921.13;;;14.79;57.67
72560;BME280;62987;52.382;9.752;2022-11-04T11:01:37;99928.03;;;14.58;57.69
72560;BME280;62987;52.382;9.752;2022-11-04T11:04:06;99929.81;;;14.32;58.60
72560;BME280;62987;52.382;9.752;2022-11-04T11:06:35;99922.34;;;14.62;58.26
72560;BME280;62987;52.382;9.752;2022-11-04T11:09:12;99925.09;;;14.10;58.51
72560;BME280;62987;52.382;9.752;2022-11-04T11:11:43;99910.44;;;14.16;59.39
72560;BME280;62987;52.382;9.752;2022-11-04T11:14:18;99913.78;;;14.32;59.23
72560;BME280;62987;52.382;9.752;2022-11-04T11:16:48;99902.25;;;14.44;58.46
72560;BME280;62987;52.382;9.752;2022-11-04T11:19:18;99900.06;;;14.62;57.71
72560;BME280;62987;52.382;9.752;2022-11-04T11:21:48;99900.16;;;14.60;56.80
72560;BME280;62987;52.382;9.752;2022-11-04T11:24:20;99912.25;;;14.28;58.25
72560;BME280;62987;52.382;9.752;2022-11-04T11:26:49;99901.13;;;14.09;59.09
72560;BME280;62987;52.382;9.752;2022-11-04T11:29:22;99895.28;;;14.42;57.48
72560;BME280;62987;52.382;9.752;2022-11-04T11:31:53;99903.50;;;14.26;58.06
72560;BME280;62987;52.382;9.752;2022-11-04T11:34:25;99895.59;;;14.86;56.55
72560;BME280;62987;52.382;9.752;2022-11-04T11:36:59;99897.78;;;15.05;56.18
72560;BME280;62987;52.382;9.752;2022-11-04T11:39:30;99900.09;;;15.22;55.64
72560;BME280;62987;52.382;9.752;2022-11-04T11:42:00;99908.00;;;15.24;55.54
72560;BME280;62987;52.382;9.752;2022-11-04T11:44:32;99910.31;;;15.41;56.01
72560;BME280;62987;52.382;9.752;2022-11-04T11:47:08;99912.91;;;15.30;56.62
72560;BME280;62987;52.382;9.752;2022-11-04T11:49:44;99915.94;;;15.25;56.14
72560;BME280;62987;52.382;9.752;2022-11-04T11:52:24;99917.34;;;15.18;55.74
72560;BME280;62987;52.382;9.752;2022-11-04T11:54:57;99913.59;;;14.97;56.51
72560;BME280;62987;52.382;9.752;2022-11-04T11:57:38;99914.53;;;15.32;55.80
72560;BME280;62987;52.382;9.752;2022-11-04T12:00:12;99912.09;;;16.56;51.75
72560;BME280;62987;52.382;9.752;2022-11-04T12:03:10;99911.22;;;17.00;49.50
72560;BME280;62987;52.382;9.752;2022-11-04T12:05:46;99925.47;;;16.12;52.59
72560;BME280;62987;52.382;9.752;2022-11-04T12:08:58;99913.91;;;15.52;54.33
72560;BME280;62987;52.382;9.752;2022-11-04T12:11:58;99921.53;;;15.22;55.50
72560;BME280;62987;52.382;9.752;2022-11-04T12:14:40;99919.25;;;14.92;55.81
72560;BME280;62987;52.382;9.752;2022-11-04T12:17:24;99923.09;;;15.01;55.44
72560;BME280;62987;52.382;9.752;2022-11-04T12:20:02;99918.59;;;15.01;56.05
72560;BME280;62987;52.382;9.752;2022-11-04T12:22:47;99911.13;;;14.94;56.41
72560;BME280;62987;52.382;9.752;2022-11-04T12:25:23;99920.81;;;14.84;56.51
72560;BME280;62987;52.382;9.752;2022-11-04T12:28:04;99922.03;;;15.03;56.69
72560;BME280;62987;52.382;9.752;2022-11-04T12:30:43;99924.69;;;15.16;56.64
72560;BME280;62987;52.382;9.752;2022-11-04T12:33:24;99919.97;;;15.07;56.98
72560;BME280;62987;52.382;9.752;2022-11-04T12:36:06;99919.53;;;15.13;56.90
72560;BME280;62987;52.382;9.752;2022-11-04T12:38:58;99919.75;;;15.10;56.27
72560;BME280;62987;52.382;9.752;2022-11-04T12:41:40;99919.84;;;14.72;56.72
72560;BME280;62987;52.382;9.752;2022-11-04T12:44:31;99925.13;;;14.97;55.52
72560;BME280;62987;52.382;9.752;2022-11-04T12:47:11;99920.72;;;15.09;55.21
72560;BME280;62987;52.382;9.752;2022-11-04T12:49:59;99935.09;;;15.08;55.95
72560;BME280;62987;52.382;9.752;2022-11-04T12:52:43;99931.75;;;15.65;53.04
72560;BME280;62987;52.382;9.752;2022-11-04T12:55:26;99936.69;;;15.82;52.15
72560;BME280;62987;52.382;9.752;2022-11-04T12:58:04;99940.94;;;15.13;53.63
72560;BME280;62987;52.382;9.752;2022-11-04T13:00:35;99945.66;;;15.22;53.38
72560;BME280;62987;52.382;9.752;2022-11-04T13:03:11;99942.16;;;15.33;54.19
72560;BME280;62987;52.382;9.752;2022-11-04T13:05:43;99949.41;;;14.83;54.85
72560;BME280;62987;52.382;9.752;2022-11-04T13:08:21;99953.84;;;15.08;55.31
72560;BME280;62987;52.382;9.752;2022-11-04T13:10:54;99956.09;;;15.01;54.68
72560;BME280;62987;52.382;9.752;2022-11-04T13:13:26;99962.75;;;14.96;55.57
72560;BME280;62987;52.382;9.752;2022-11-04T13:16:01;99971.09;;;14.91;55.68
72560;BME280;62987;52.382;9.752;2022-11-04T13:18:30;99977.59;;;14.63;56.64
72560;BME280;62987;52.382;9.752;2022-11-04T13:21:04;99981.00;;;14.53;56.82
72560;BME280;62987;52.382;9.752;2022-11-04T13:23:38;99979.31;;;14.64;56.56
72560;BME280;62987;52.382;9.752;2022-11-04T13:26:10;99979.16;;;14.66;56.22
72560;BME280;62987;52.382;9.752;2022-11-04T13:28:41;99976.47;;;14.91;56.25
72560;BME280;62987;52.382;9.752;2022-11-04T13:31:14;99983.78;;;14.38;56.83
72560;BME280;62987;52.382;9.752;2022-11-04T13:33:50;99983.34;;;14.83;56.86
72560;BME280;62987;52.382;9.752;2022-11-04T13:36:28;99994.25;;;14.79;57.34